sensor_id;sensor_type;location;lat;lon;timestamp;P1;durP1;ratioP1;P2;durP2;ratioP2
2211;SDS011;48849;48.758;9.158;2023-08-17T00:02:25;9.10;;;6.13;;
2211;SDS011;48849;48.758;9.158;2023-08-17T00:04:51;6.80;;;5.60;;
2211;SDS011;48849;48.758;9.158;2023-08-17T00:07:19;9.30;;;6.20;;
2211;SDS011;48849;48.758;9.158;2023-08-17T00:09:46;6.67;;;6.00;;
2211;SDS011;48849;48.758;9.158;2023-08-17T00:12:13;15.50;;;6.40;;
2211;SDS011;48849;48.758;9.158;2023-08-17T00:14:41;6.87;;;5.47;;
2211;SDS011;48849;48.758;9.158;2023-08-17T00:17:08;7.30;;;6.63;;
2211;SDS011;48849;48.758;9.158;2023-08-17T00:19:35;9.83;;;5.93;;
2211;SDS011;48849;48.758;9.158;2023-08-17T00:22:02;9.13;;;6.23;;
2211;SDS011;48849;48.758;9.158;2023-08-17T00:24:29;7.67;;;6.87;;
2211;SDS011;48849;48.758;9.158;2023-08-17T00:26:56;8.37;;;5.90;;
2211;SDS011;48849;48.758;9.158;2023-08-17T00:29:23;8.17;;;7.10;;
2211;SDS011;48849;48.758;9.158;2023-08-17T00:31:51;7.70;;;6.50;;
2211;SDS011;48849;48.758;9.158;2023-08-17T00:34:18;8.17;;;6.30;;
2211;SDS011;48849;48.758;9.158;2023-08-17T00:36:44;6.73;;;6.13;;
2211;SDS011;48849;48.758;9.158;2023-08-17T00:39:11;11.50;;;7.80;;
2211;SDS011;48849;48.758;9.158;2023-08-17T00:41:38;7.07;;;6.40;;
2211;SDS011;48849;48.758;9.158;2023-08-17T00:44:05;7.33;;;6.70;;
2211;SDS011;48849;48.758;9.158;2023-08-17T00:46:32;6.93;;;6.33;;
2211;SDS011;48849;48.758;9.158;2023-08-17T00:49:00;8.07;;;7.27;;
2211;SDS011;48849;48.758;9.158;2023-08-17T00:51:27;8.00;;;7.20;;
2211;SDS011;48849;48.758;9.158;2023-08-17T00:53:54;8.57;;;7.73;;
2211;SDS011;48849;48.758;9.158;2023-08-17T00:56:24;7.60;;;6.90;;
2211;SDS011;48849;48.758;9.158;2023-08-17T00:58:51;7.87;;;7.07;;
2211;SDS011;48849;48.758;9.158;2023-08-17T01:01:19;8.57;;;7.03;;
2211;SDS011;48849;48.758;9.158;2023-08-17T01:03:46;12.23;;;7.47;;
2211;SDS011;48849;48.758;9.158;2023-08-17T01:06:14;8.73;;;7.33;;
2211;SDS011;48849;48.758;9.158;2023-08-17T01:08:41;7.60;;;6.77;;
2211;SDS011;48849;48.758;9.158;2023-08-17T01:11:13;8.83;;;6.97;;
2211;SDS011;48849;48.758;9.158;2023-08-17T01:13:49;7.53;;;6.80;;
2211;SDS011;48849;48.758;9.158;2023-08-17T01:16:23;8.17;;;7.33;;
2211;SDS011;48849;48.758;9.158;2023-08-17T01:18:53;7.37;;;6.53;;
2211;SDS011;48849;48.758;9.158;2023-08-17T01:21:22;8.00;;;7.13;;
2211;SDS011;48849;48.758;9.158;2023-08-17T01:23:51;9.03;;;7.70;;
2211;SDS011;48849;48.758;9.158;2023-08-17T01:26:23;10.00;;;7.40;;
2211;SDS011;48849;48.758;9.158;2023-08-17T01:28:50;8.47;;;7.67;;
2211;SDS011;48849;48.758;9.158;2023-08-17T01:31:18;8.40;;;7.50;;
2211;SDS011;48849;48.758;9.158;2023-08-17T01:33:52;8.33;;;7.33;;
2211;SDS011;48849;48.758;9.158;2023-08-17T01:36:25;9.47;;;8.60;;
2211;SDS011;48849;48.758;9.158;2023-08-17T01:38:56;9.40;;;8.47;;
2211;SDS011;48849;48.758;9.158;2023-08-17T01:41:23;8.33;;;7.30;;
2211;SDS011;48849;48.758;9.158;2023-08-17T01:43:51;10.67;;;7.53;;
2211;SDS011;48849;48.758;9.158;2023-08-17T01:46:19;8.97;;;8.07;;
2211;SDS011;48849;48.758;9.158;2023-08-17T01:48:46;8.43;;;7.57;;
2211;SDS011;48849;48.758;9.158;2023-08-17T01:51:15;8.50;;;7.60;;
2211;SDS011;48849;48.758;9.158;2023-08-17T01:53:43;8.37;;;7.50;;
2211;SDS011;48849;48.758;9.158;2023-08-17T01:56:12;8.77;;;7.90;;
2211;SDS011;48849;48.758;9.158;2023-08-17T01:58:38;8.63;;;7.73;;
2211;SDS011;48849;48.758;9.158;2023-08-17T02:01:05;10.53;;;7.77;;
2211;SDS011;48849;48.758;9.158;2023-08-17T02:03:32;14.60;;;7.50;;
2211;SDS011;48849;48.758;9.158;2023-08-17T02:05:59;8.80;;;7.93;;
2211;SDS011;48849;48.758;9.158;2023-08-17T02:08:26;8.40;;;7.60;;
2211;SDS011;48849;48.758;9.158;2023-08-17T02:10:53;11.60;;;7.77;;
2211;SDS011;48849;48.758;9.158;2023-08-17T02:13:21;8.13;;;7.33;;
2211;SDS011;48849;48.758;9.158;2023-08-17T02:15:48;7.73;;;7.03;;
2211;SDS011;48849;48.758;9.158;2023-08-17T02:18:14;8.33;;;7.53;;
2211;SDS011;48849;48.758;9.158;2023-08-17T02:20:41;9.00;;;8.17;;
2211;SDS011;48849;48.758;9.158;2023-08-17T02:23:08;10.73;;;7.37;;
2211;SDS011;48849;48.758;9.158;2023-08-17T02:25:37;7.87;;;7.17;;
2211;SDS011;48849;48.758;9.158;2023-08-17T02:28:04;10.83;;;7.90;;
2211;SDS011;48849;48.758;9.158;2023-08-17T02:30:32;8.87;;;8.07;;
2211;SDS011;48849;48.758;9.158;2023-08-17T02:32:59;8.63;;;7.37;;
2211;SDS011;48849;48.758;9.158;2023-08-17T02:35:26;8.20;;;7.40;;
2211;SDS011;48849;48.758;9.158;2023-08-17T02:37:53;9.00;;;8.10;;
2211;SDS011;48849;48.758;9.158;2023-08-17T02:40:20;9.40;;;8.50;;
2211;SDS011;48849;48.758;9.158;2023-08-17T02:42:46;9.27;;;8.27;;
2211;SDS011;48849;48.758;9.158;2023-08-17T02:45:13;9.47;;;8.13;;
2211;SDS011;48849;48.758;9.158;2023-08-17T02:47:41;9.50;;;8.70;;
2211;SDS011;48849;48.758;9.158;2023-08-17T02:50:08;10.37;;;9.37;;
2211;SDS011;48849;48.758;9.158;2023-08-17T02:52:35;11.90;;;10.63;;
2211;SDS011;48849;48.758;9.158;2023-08-17T02:55:02;15.37;;;11.27;;
2211;SDS011;48849;48.758;9.158;2023-08-17T02:57:30;14.93;;;11.20;;
2211;SDS011;48849;48.758;9.158;2023-08-17T02:59:56;12.13;;;10.90;;
2211;SDS011;48849;48.758;9.158;2023-08-17T03:02:23;13.90;;;10.33;;
2211;SDS011;48849;48.758;9.158;2023-08-17T03:04:51;13.40;;;11.80;;
2211;SDS011;48849;48.758;9.158;2023-08-17T03:07:18;14.00;;;12.60;;
2211;SDS011;48849;48.758;9.158;2023-08-17T03:09:44;13.47;;;12.00;;
2211;SDS011;48849;48.758;9.158;2023-08-17T03:12:11;16.43;;;13.70;;
2211;SDS011;48849;48.758;9.158;2023-08-17T03:14:38;14.47;;;13.17;;
2211;SDS011;48849;48.758;9.158;2023-08-17T03:17:05;15.27;;;13.20;;
2211;SDS011;48849;48.758;9.158;2023-08-17T03:19:32;13.60;;;12.20;;
2211;SDS011;48849;48.758;9.158;2023-08-17T03:22:00;16.13;;;13.00;;
2211;SDS011;48849;48.758;9.158;2023-08-17T03:24:27;15.50;;;13.70;;
2211;SDS011;48849;48.758;9.158;2023-08-17T03:26:53;14.73;;;13.33;;
2211;SDS011;48849;48.758;9.158;2023-08-17T03:29:20;13.77;;;12.50;;
2211;SDS011;48849;48.758;9.158;2023-08-17T03:31:47;13.60;;;12.30;;
2211;SDS011;48849;48.758;9.158;2023-08-17T03:34:14;16.33;;;12.53;;
2211;SDS011;48849;48.758;9.158;2023-08-17T03:36:41;13.17;;;11.97;;
2211;SDS011;48849;48.758;9.158;2023-08-17T03:39:09;13.63;;;11.57;;
2211;SDS011;48849;48.758;9.158;2023-08-17T03:41:36;13.07;;;11.70;;
2211;SDS011;48849;48.758;9.158;2023-08-17T03:44:03;13.20;;;12.00;;
2211;SDS011;48849;48.758;9.158;2023-08-17T03:46:32;16.13;;;14.40;;
2211;SDS011;48849;48.758;9.158;2023-08-17T03:48:58;14.60;;;13.10;;
2211;SDS011;48849;48.758;9.158;2023-08-17T03:51:25;15.20;;;13.80;;
2211;SDS011;48849;48.758;9.158;2023-08-17T03:53:52;14.30;;;12.80;;
2211;SDS011;48849;48.758;9.158;2023-08-17T03:56:20;14.90;;;13.30;;
2211;SDS011;48849;48.758;9.158;2023-08-17T03:58:47;18.17;;;13.50;;
2211;SDS011;48849;48.758;9.158;2023-08-17T04:01:13;14.07;;;12.17;;
2211;SDS011;48849;48.758;9.158;2023-08-17T04:03:40;14.70;;;12.63;;
2211;SDS011;48849;48.758;9.158;2023-08-17T04:06:07;16.40;;;12.53;;
2211;SDS011;48849;48.758;9.158;2023-08-17T04:08:35;15.03;;;13.43;;
2211;SDS011;48849;48.758;9.158;2023-08-17T04:11:02;13.73;;;12.33;;
2211;SDS011;48849;48.758;9.158;2023-08-17T04:13:31;14.57;;;13.17;;
2211;SDS011;48849;48.758;9.158;2023-08-17T04:15:58;16.07;;;14.47;;
2211;SDS011;48849;48.758;9.158;2023-08-17T04:18:24;15.97;;;13.87;;
2211;SDS011;48849;48.758;9.158;2023-08-17T04:20:51;16.23;;;14.63;;
2211;SDS011;48849;48.758;9.158;2023-08-17T04:23:18;18.23;;;14.03;;
2211;SDS011;48849;48.758;9.158;2023-08-17T04:25:46;15.80;;;14.20;;
2211;SDS011;48849;48.758;9.158;2023-08-17T04:28:13;17.00;;;15.27;;
2211;SDS011;48849;48.758;9.158;2023-08-17T04:30:41;18.30;;;15.13;;
2211;SDS011;48849;48.758;9.158;2023-08-17T04:33:08;17.90;;;14.60;;
2211;SDS011;48849;48.758;9.158;2023-08-17T04:35:35;14.90;;;13.30;;
2211;SDS011;48849;48.758;9.158;2023-08-17T04:38:02;14.50;;;13.07;;
2211;SDS011;48849;48.758;9.158;2023-08-17T04:40:28;14.33;;;13.03;;
2211;SDS011;48849;48.758;9.158;2023-08-17T04:42:55;14.60;;;13.20;;
2211;SDS011;48849;48.758;9.158;2023-08-17T04:45:22;14.40;;;12.80;;
2211;SDS011;48849;48.758;9.158;2023-08-17T04:47:50;14.47;;;13.00;;
2211;SDS011;48849;48.758;9.158;2023-08-17T04:50:17;15.53;;;14.03;;
2211;SDS011;48849;48.758;9.158;2023-08-17T04:52:44;18.90;;;15.10;;
2211;SDS011;48849;48.758;9.158;2023-08-17T04:55:11;16.60;;;14.83;;
2211;SDS011;48849;48.758;9.158;2023-08-17T04:57:37;20.43;;;17.23;;
2211;SDS011;48849;48.758;9.158;2023-08-17T05:00:06;18.53;;;16.20;;
2211;SDS011;48849;48.758;9.158;2023-08-17T05:02:35;18.03;;;16.23;;
2211;SDS011;48849;48.758;9.158;2023-08-17T05:05:04;20.63;;;18.10;;
2211;SDS011;48849;48.758;9.158;2023-08-17T05:07:32;20.30;;;17.27;;
2211;SDS011;48849;48.758;9.158;2023-08-17T05:09:59;19.80;;;17.70;;
2211;SDS011;48849;48.758;9.158;2023-08-17T05:12:26;19.80;;;17.80;;
2211;SDS011;48849;48.758;9.158;2023-08-17T05:14:52;19.87;;;17.63;;
2211;SDS011;48849;48.758;9.158;2023-08-17T05:17:19;20.07;;;18.00;;
2211;SDS011;48849;48.758;9.158;2023-08-17T05:19:46;20.50;;;18.03;;
2211;SDS011;48849;48.758;9.158;2023-08-17T05:22:14;20.30;;;18.23;;
2211;SDS011;48849;48.758;9.158;2023-08-17T05:24:41;19.10;;;17.10;;
2211;SDS011;48849;48.758;9.158;2023-08-17T05:27:08;18.30;;;16.60;;
2211;SDS011;48849;48.758;9.158;2023-08-17T05:29:34;18.97;;;17.17;;
2211;SDS011;48849;48.758;9.158;2023-08-17T05:32:01;19.60;;;17.73;;
2211;SDS011;48849;48.758;9.158;2023-08-17T05:34:28;19.00;;;17.27;;
2211;SDS011;48849;48.758;9.158;2023-08-17T05:36:55;18.40;;;16.60;;
2211;SDS011;48849;48.758;9.158;2023-08-17T05:39:23;17.40;;;15.60;;
2211;SDS011;48849;48.758;9.158;2023-08-17T05:41:49;15.77;;;14.37;;
2211;SDS011;48849;48.758;9.158;2023-08-17T05:44:17;19.83;;;17.70;;
2211;SDS011;48849;48.758;9.158;2023-08-17T05:46:44;17.77;;;15.97;;
2211;SDS011;48849;48.758;9.158;2023-08-17T05:49:10;19.87;;;17.90;;
2211;SDS011;48849;48.758;9.158;2023-08-17T05:51:37;19.40;;;16.87;;
2211;SDS011;48849;48.758;9.158;2023-08-17T05:54:04;19.27;;;17.37;;
2211;SDS011;48849;48.758;9.158;2023-08-17T05:56:32;18.70;;;16.60;;
2211;SDS011;48849;48.758;9.158;2023-08-17T05:58:59;19.40;;;17.57;;
2211;SDS011;48849;48.758;9.158;2023-08-17T06:01:26;18.60;;;16.90;;
2211;SDS011;48849;48.758;9.158;2023-08-17T06:03:53;19.83;;;16.13;;
2211;SDS011;48849;48.758;9.158;2023-08-17T06:06:19;19.93;;;18.00;;
2211;SDS011;48849;48.758;9.158;2023-08-17T06:08:46;18.33;;;16.27;;
2211;SDS011;48849;48.758;9.158;2023-08-17T06:11:13;17.70;;;15.80;;
2211;SDS011;48849;48.758;9.158;2023-08-17T06:13:41;16.43;;;14.83;;
2211;SDS011;48849;48.758;9.158;2023-08-17T06:16:08;17.70;;;15.90;;
2211;SDS011;48849;48.758;9.158;2023-08-17T06:18:35;17.23;;;14.63;;
2211;SDS011;48849;48.758;9.158;2023-08-17T06:21:03;17.70;;;15.93;;
2211;SDS011;48849;48.758;9.158;2023-08-17T06:23:29;19.50;;;16.87;;
2211;SDS011;48849;48.758;9.158;2023-08-17T06:25:56;19.17;;;17.37;;
2211;SDS011;48849;48.758;9.158;2023-08-17T06:28:23;18.83;;;17.00;;
2211;SDS011;48849;48.758;9.158;2023-08-17T06:30:52;17.60;;;15.80;;
2211;SDS011;48849;48.758;9.158;2023-08-17T06:33:20;18.00;;;16.30;;
2211;SDS011;48849;48.758;9.158;2023-08-17T06:35:47;24.20;;;17.17;;
2211;SDS011;48849;48.758;9.158;2023-08-17T06:38:14;19.10;;;16.90;;
2211;SDS011;48849;48.758;9.158;2023-08-17T06:40:42;19.53;;;17.63;;
2211;SDS011;48849;48.758;9.158;2023-08-17T06:43:08;18.40;;;16.40;;
2211;SDS011;48849;48.758;9.158;2023-08-17T06:45:38;20.00;;;18.00;;
2211;SDS011;48849;48.758;9.158;2023-08-17T06:48:06;18.20;;;16.50;;
2211;SDS011;48849;48.758;9.158;2023-08-17T06:50:35;18.98;;;16.80;;
2211;SDS011;48849;48.758;9.158;2023-08-17T06:53:03;17.37;;;15.57;;
2211;SDS011;48849;48.758;9.158;2023-08-17T06:55:33;17.40;;;15.43;;
2211;SDS011;48849;48.758;9.158;2023-08-17T06:58:08;16.63;;;14.83;;
2211;SDS011;48849;48.758;9.158;2023-08-17T07:00:35;15.40;;;13.90;;
2211;SDS011;48849;48.758;9.158;2023-08-17T07:03:12;15.60;;;13.20;;
2211;SDS011;48849;48.758;9.158;2023-08-17T07:05:45;14.20;;;12.80;;
2211;SDS011;48849;48.758;9.158;2023-08-17T07:08:13;15.30;;;13.70;;
2211;SDS011;48849;48.758;9.158;2023-08-17T07:10:40;15.37;;;13.83;;
2211;SDS011;48849;48.758;9.158;2023-08-17T07:13:06;16.10;;;14.40;;
2211;SDS011;48849;48.758;9.158;2023-08-17T07:15:33;16.60;;;14.37;;
2211;SDS011;48849;48.758;9.158;2023-08-17T07:18:00;15.37;;;13.77;;
2211;SDS011;48849;48.758;9.158;2023-08-17T07:20:28;14.90;;;13.60;;
2211;SDS011;48849;48.758;9.158;2023-08-17T07:22:55;16.40;;;14.90;;
2211;SDS011;48849;48.758;9.158;2023-08-17T07:25:22;14.00;;;12.70;;
2211;SDS011;48849;48.758;9.158;2023-08-17T07:27:49;14.20;;;12.80;;
2211;SDS011;48849;48.758;9.158;2023-08-17T07:30:16;14.27;;;12.87;;
2211;SDS011;48849;48.758;9.158;2023-08-17T07:32:48;15.90;;;14.27;;
2211;SDS011;48849;48.758;9.158;2023-08-17T07:35:16;14.80;;;13.40;;
2211;SDS011;48849;48.758;9.158;2023-08-17T07:41:02;15.20;;;13.60;;
2211;SDS011;48849;48.758;9.158;2023-08-17T07:43:29;16.77;;;14.53;;
2211;SDS011;48849;48.758;9.158;2023-08-17T07:45:56;15.60;;;14.07;;
2211;SDS011;48849;48.758;9.158;2023-08-17T07:48:26;14.67;;;12.87;;
2211;SDS011;48849;48.758;9.158;2023-08-17T07:50:58;21.20;;;14.57;;
2211;SDS011;48849;48.758;9.158;2023-08-17T07:53:27;14.70;;;13.07;;
2211;SDS011;48849;48.758;9.158;2023-08-17T07:55:54;16.10;;;13.10;;
2211;SDS011;48849;48.758;9.158;2023-08-17T07:58:23;16.13;;;12.17;;
2211;SDS011;48849;48.758;9.158;2023-08-17T08:04:59;16.20;;;14.60;;
2211;SDS011;48849;48.758;9.158;2023-08-17T08:08:16;15.57;;;14.00;;
2211;SDS011;48849;48.758;9.158;2023-08-17T08:11:01;14.93;;;13.63;;
2211;SDS011;48849;48.758;9.158;2023-08-17T08:16:42;14.00;;;12.70;;
2211;SDS011;48849;48.758;9.158;2023-08-17T08:19:26;14.00;;;12.70;;
2211;SDS011;48849;48.758;9.158;2023-08-17T08:39:19;14.00;;;12.80;;
2211;SDS011;48849;48.758;9.158;2023-08-17T08:41:46;13.73;;;11.90;;
2211;SDS011;48849;48.758;9.158;2023-08-17T08:44:23;13.13;;;11.87;;
2211;SDS011;48849;48.758;9.158;2023-08-17T08:46:50;12.03;;;10.93;;
2211;SDS011;48849;48.758;9.158;2023-08-17T08:49:23;15.20;;;12.50;;
2211;SDS011;48849;48.758;9.158;2023-08-17T08:51:52;12.50;;;11.30;;
2211;SDS011;48849;48.758;9.158;2023-08-17T08:54:24;11.93;;;10.73;;
2211;SDS011;48849;48.758;9.158;2023-08-17T08:56:54;12.43;;;11.13;;
2211;SDS011;48849;48.758;9.158;2023-08-17T08:59:25;11.70;;;10.70;;
2211;SDS011;48849;48.758;9.158;2023-08-17T09:01:53;10.47;;;9.47;;
2211;SDS011;48849;48.758;9.158;2023-08-17T09:04:24;11.53;;;10.33;;
2211;SDS011;48849;48.758;9.158;2023-08-17T09:06:51;12.67;;;9.93;;
2211;SDS011;48849;48.758;9.158;2023-08-17T09:09:20;14.40;;;10.67;;
2211;SDS011;48849;48.758;9.158;2023-08-17T09:11:47;11.47;;;10.37;;
2211;SDS011;48849;48.758;9.158;2023-08-17T09:14:14;12.17;;;9.93;;
2211;SDS011;48849;48.758;9.158;2023-08-17T09:16:41;10.07;;;9.07;;
2211;SDS011;48849;48.758;9.158;2023-08-17T09:19:08;9.70;;;8.67;;
2211;SDS011;48849;48.758;9.158;2023-08-17T09:21:36;10.50;;;9.40;;
2211;SDS011;48849;48.758;9.158;2023-08-17T09:24:04;10.63;;;9.63;;
2211;SDS011;48849;48.758;9.158;2023-08-17T09:26:33;11.07;;;9.93;;
2211;SDS011;48849;48.758;9.158;2023-08-17T09:29:03;10.83;;;9.83;;
2211;SDS011;48849;48.758;9.158;2023-08-17T09:31:43;13.83;;;10.90;;
2211;SDS011;48849;48.758;9.158;2023-08-17T09:34:09;12.27;;;9.67;;
2211;SDS011;48849;48.758;9.158;2023-08-17T09:36:38;9.70;;;8.90;;
2211;SDS011;48849;48.758;9.158;2023-08-17T09:39:06;10.53;;;9.50;;
2211;SDS011;48849;48.758;9.158;2023-08-17T09:41:37;9.93;;;8.87;;
2211;SDS011;48849;48.758;9.158;2023-08-17T09:44:05;8.50;;;7.80;;
2211;SDS011;48849;48.758;9.158;2023-08-17T09:46:33;9.30;;;8.43;;
2211;SDS011;48849;48.758;9.158;2023-08-17T09:49:01;9.77;;;8.87;;
2211;SDS011;48849;48.758;9.158;2023-08-17T09:51:29;10.97;;;9.10;;
2211;SDS011;48849;48.758;9.158;2023-08-17T09:53:58;9.33;;;7.90;;
2211;SDS011;48849;48.758;9.158;2023-08-17T09:56:25;8.87;;;8.07;;
2211;SDS011;48849;48.758;9.158;2023-08-17T09:58:54;9.30;;;8.40;;
2211;SDS011;48849;48.758;9.158;2023-08-17T10:01:21;9.20;;;8.30;;
2211;SDS011;48849;48.758;9.158;2023-08-17T10:03:49;11.60;;;9.50;;
2211;SDS011;48849;48.758;9.158;2023-08-17T10:06:20;10.60;;;9.57;;
2211;SDS011;48849;48.758;9.158;2023-08-17T10:08:50;18.87;;;12.07;;
2211;SDS011;48849;48.758;9.158;2023-08-17T10:11:20;10.07;;;9.07;;
2211;SDS011;48849;48.758;9.158;2023-08-17T10:13:51;9.40;;;8.60;;
2211;SDS011;48849;48.758;9.158;2023-08-17T10:16:22;9.47;;;8.47;;
2211;SDS011;48849;48.758;9.158;2023-08-17T10:18:50;10.13;;;9.13;;
2211;SDS011;48849;48.758;9.158;2023-08-17T10:21:23;8.67;;;7.80;;
2211;SDS011;48849;48.758;9.158;2023-08-17T10:23:55;9.90;;;9.00;;
2211;SDS011;48849;48.758;9.158;2023-08-17T10:26:23;9.07;;;8.17;;
2211;SDS011;48849;48.758;9.158;2023-08-17T10:28:50;8.43;;;7.67;;
2211;SDS011;48849;48.758;9.158;2023-08-17T10:31:19;12.43;;;9.13;;
2211;SDS011;48849;48.758;9.158;2023-08-17T10:33:46;10.33;;;9.33;;
2211;SDS011;48849;48.758;9.158;2023-08-17T10:36:13;11.13;;;10.00;;
2211;SDS011;48849;48.758;9.158;2023-08-17T10:38:41;12.00;;;10.90;;
2211;SDS011;48849;48.758;9.158;2023-08-17T10:41:08;11.10;;;10.00;;
2211;SDS011;48849;48.758;9.158;2023-08-17T10:46:33;10.13;;;9.17;;
2211;SDS011;48849;48.758;9.158;2023-08-17T10:49:02;10.63;;;9.63;;
2211;SDS011;48849;48.758;9.158;2023-08-17T10:51:31;9.40;;;8.60;;
2211;SDS011;48849;48.758;9.158;2023-08-17T10:53:58;10.10;;;9.10;;
2211;SDS011;48849;48.758;9.158;2023-08-17T10:56:27;9.27;;;8.37;;
2211;SDS011;48849;48.758;9.158;2023-08-17T10:58:54;9.37;;;8.27;;
2211;SDS011;48849;48.758;9.158;2023-08-17T11:01:35;9.10;;;8.30;;
2211;SDS011;48849;48.758;9.158;2023-08-17T11:04:15;9.80;;;8.90;;
2211;SDS011;48849;48.758;9.158;2023-08-17T11:06:43;10.07;;;9.20;;
2211;SDS011;48849;48.758;9.158;2023-08-17T11:09:10;11.40;;;9.10;;
2211;SDS011;48849;48.758;9.158;2023-08-17T11:11:37;9.90;;;9.20;;
2211;SDS011;48849;48.758;9.158;2023-08-17T11:14:04;9.50;;;8.77;;
2211;SDS011;48849;48.758;9.158;2023-08-17T11:16:31;12.77;;;9.57;;
2211;SDS011;48849;48.758;9.158;2023-08-17T11:18:59;9.67;;;8.67;;
2211;SDS011;48849;48.758;9.158;2023-08-17T11:21:26;10.20;;;9.30;;
2211;SDS011;48849;48.758;9.158;2023-08-17T11:23:55;10.10;;;9.20;;
2211;SDS011;48849;48.758;9.158;2023-08-17T11:26:24;9.07;;;8.27;;
2211;SDS011;48849;48.758;9.158;2023-08-17T11:28:52;9.97;;;9.17;;
2211;SDS011;48849;48.758;9.158;2023-08-17T11:31:19;10.40;;;9.17;;
2211;SDS011;48849;48.758;9.158;2023-08-17T11:33:46;10.43;;;9.13;;
2211;SDS011;48849;48.758;9.158;2023-08-17T11:36:14;9.90;;;9.10;;
2211;SDS011;48849;48.758;9.158;2023-08-17T11:38:42;10.63;;;9.73;;
2211;SDS011;48849;48.758;9.158;2023-08-17T11:41:10;11.03;;;9.70;;
2211;SDS011;48849;48.758;9.158;2023-08-17T11:43:37;13.47;;;9.20;;
2211;SDS011;48849;48.758;9.158;2023-08-17T11:46:05;10.93;;;9.83;;
2211;SDS011;48849;48.758;9.158;2023-08-17T11:55:51;10.47;;;9.57;;
2211;SDS011;48849;48.758;9.158;2023-08-17T12:05:08;12.20;;;11.00;;
2211;SDS011;48849;48.758;9.158;2023-08-17T12:08:09;11.30;;;10.10;;
2211;SDS011;48849;48.758;9.158;2023-08-17T12:10:41;11.47;;;10.17;;
2211;SDS011;48849;48.758;9.158;2023-08-17T12:13:13;11.30;;;10.30;;
2211;SDS011;48849;48.758;9.158;2023-08-17T12:18:43;11.40;;;10.40;;
2211;SDS011;48849;48.758;9.158;2023-08-17T12:21:26;12.60;;;11.27;;
2211;SDS011;48849;48.758;9.158;2023-08-17T12:23:56;11.50;;;10.50;;
2211;SDS011;48849;48.758;9.158;2023-08-17T12:34:06;13.17;;;11.63;;
2211;SDS011;48849;48.758;9.158;2023-08-17T12:36:44;11.83;;;10.67;;
2211;SDS011;48849;48.758;9.158;2023-08-17T12:45:41;11.70;;;10.67;;
2211;SDS011;48849;48.758;9.158;2023-08-17T12:48:10;11.90;;;10.70;;
2211;SDS011;48849;48.758;9.158;2023-08-17T12:50:43;12.00;;;10.57;;
2211;SDS011;48849;48.758;9.158;2023-08-17T12:53:13;11.20;;;10.13;;
2211;SDS011;48849;48.758;9.158;2023-08-17T12:55:48;10.70;;;9.60;;
2211;SDS011;48849;48.758;9.158;2023-08-17T12:58:29;12.43;;;11.23;;
2211;SDS011;48849;48.758;9.158;2023-08-17T13:01:01;11.60;;;10.40;;
2211;SDS011;48849;48.758;9.158;2023-08-17T13:03:33;12.53;;;11.17;;
2211;SDS011;48849;48.758;9.158;2023-08-17T13:06:01;13.60;;;10.60;;
2211;SDS011;48849;48.758;9.158;2023-08-17T13:08:45;11.17;;;10.10;;
2211;SDS011;48849;48.758;9.158;2023-08-17T13:14:44;11.13;;;10.13;;
2211;SDS011;48849;48.758;9.158;2023-08-17T13:20:53;11.43;;;10.43;;
2211;SDS011;48849;48.758;9.158;2023-08-17T13:23:26;10.00;;;9.20;;
2211;SDS011;48849;48.758;9.158;2023-08-17T13:25:55;11.77;;;10.10;;
2211;SDS011;48849;48.758;9.158;2023-08-17T13:28:25;10.80;;;9.60;;
2211;SDS011;48849;48.758;9.158;2023-08-17T13:31:21;19.33;;;10.13;;
2211;SDS011;48849;48.758;9.158;2023-08-17T13:34:46;10.50;;;9.60;;
2211;SDS011;48849;48.758;9.158;2023-08-17T13:37:13;11.30;;;9.27;;
2211;SDS011;48849;48.758;9.158;2023-08-17T13:42:32;12.00;;;11.00;;
2211;SDS011;48849;48.758;9.158;2023-08-17T13:44:59;14.20;;;11.27;;
2211;SDS011;48849;48.758;9.158;2023-08-17T13:51:16;10.47;;;9.57;;
2211;SDS011;48849;48.758;9.158;2023-08-17T13:54:01;15.43;;;10.60;;
2211;SDS011;48849;48.758;9.158;2023-08-17T13:59:48;11.27;;;10.20;;
2211;SDS011;48849;48.758;9.158;2023-08-17T14:02:22;12.03;;;10.90;;
2211;SDS011;48849;48.758;9.158;2023-08-17T14:04:59;11.50;;;10.53;;
2211;SDS011;48849;48.758;9.158;2023-08-17T14:07:39;11.20;;;10.20;;
2211;SDS011;48849;48.758;9.158;2023-08-17T14:13:04;10.23;;;9.43;;
2211;SDS011;48849;48.758;9.158;2023-08-17T14:15:34;12.03;;;10.83;;
2211;SDS011;48849;48.758;9.158;2023-08-17T14:18:05;12.17;;;10.97;;
2211;SDS011;48849;48.758;9.158;2023-08-17T14:20:33;11.10;;;10.00;;
2211;SDS011;48849;48.758;9.158;2023-08-17T14:23:03;13.10;;;12.00;;
2211;SDS011;48849;48.758;9.158;2023-08-17T14:25:44;12.17;;;11.17;;
2211;SDS011;48849;48.758;9.158;2023-08-17T14:28:37;10.90;;;9.70;;
2211;SDS011;48849;48.758;9.158;2023-08-17T14:31:22;10.07;;;9.17;;
2211;SDS011;48849;48.758;9.158;2023-08-17T14:33:52;11.20;;;10.20;;
2211;SDS011;48849;48.758;9.158;2023-08-17T14:49:40;12.00;;;10.83;;
2211;SDS011;48849;48.758;9.158;2023-08-17T14:52:13;12.93;;;11.73;;
2211;SDS011;48849;48.758;9.158;2023-08-17T14:54:49;12.30;;;11.10;;
2211;SDS011;48849;48.758;9.158;2023-08-17T14:57:32;13.60;;;12.20;;
2211;SDS011;48849;48.758;9.158;2023-08-17T15:00:00;13.27;;;12.07;;
2211;SDS011;48849;48.758;9.158;2023-08-17T15:02:28;12.30;;;11.10;;
2211;SDS011;48849;48.758;9.158;2023-08-17T15:05:01;11.83;;;10.83;;
2211;SDS011;48849;48.758;9.158;2023-08-17T15:07:31;13.57;;;12.20;;
2211;SDS011;48849;48.758;9.158;2023-08-17T15:10:00;11.80;;;10.77;;
2211;SDS011;48849;48.758;9.158;2023-08-17T15:12:27;11.40;;;10.50;;
2211;SDS011;48849;48.758;9.158;2023-08-17T15:14:54;13.13;;;10.97;;
2211;SDS011;48849;48.758;9.158;2023-08-17T15:17:21;11.10;;;9.97;;
2211;SDS011;48849;48.758;9.158;2023-08-17T15:19:49;11.00;;;10.07;;
2211;SDS011;48849;48.758;9.158;2023-08-17T15:22:15;10.17;;;8.97;;
2211;SDS011;48849;48.758;9.158;2023-08-17T15:24:42;11.00;;;9.47;;
2211;SDS011;48849;48.758;9.158;2023-08-17T15:27:10;10.37;;;9.33;;
2211;SDS011;48849;48.758;9.158;2023-08-17T15:29:36;11.00;;;10.03;;
2211;SDS011;48849;48.758;9.158;2023-08-17T15:32:04;10.67;;;9.70;;
2211;SDS011;48849;48.758;9.158;2023-08-17T15:34:31;10.70;;;9.70;;
2211;SDS011;48849;48.758;9.158;2023-08-17T15:36:59;12.20;;;10.43;;
2211;SDS011;48849;48.758;9.158;2023-08-17T15:39:26;10.47;;;9.53;;
2211;SDS011;48849;48.758;9.158;2023-08-17T15:41:53;10.70;;;9.70;;
2211;SDS011;48849;48.758;9.158;2023-08-17T15:44:19;10.10;;;9.20;;
2211;SDS011;48849;48.758;9.158;2023-08-17T15:46:46;14.13;;;11.87;;
2211;SDS011;48849;48.758;9.158;2023-08-17T15:49:13;12.07;;;10.77;;
2211;SDS011;48849;48.758;9.158;2023-08-17T15:51:40;11.87;;;9.90;;
2211;SDS011;48849;48.758;9.158;2023-08-17T15:54:08;9.77;;;8.97;;
2211;SDS011;48849;48.758;9.158;2023-08-17T15:56:35;11.10;;;10.17;;
2211;SDS011;48849;48.758;9.158;2023-08-17T15:59:02;11.70;;;9.30;;
2211;SDS011;48849;48.758;9.158;2023-08-17T16:01:28;9.80;;;9.00;;
2211;SDS011;48849;48.758;9.158;2023-08-17T16:03:55;10.30;;;9.10;;
2211;SDS011;48849;48.758;9.158;2023-08-17T16:06:22;10.30;;;9.40;;
2211;SDS011;48849;48.758;9.158;2023-08-17T16:08:49;11.17;;;10.17;;
2211;SDS011;48849;48.758;9.158;2023-08-17T16:11:18;15.63;;;11.40;;
2211;SDS011;48849;48.758;9.158;2023-08-17T16:13:44;13.40;;;12.10;;
2211;SDS011;48849;48.758;9.158;2023-08-17T16:16:11;13.50;;;12.20;;
2211;SDS011;48849;48.758;9.158;2023-08-17T16:18:38;14.93;;;13.53;;
2211;SDS011;48849;48.758;9.158;2023-08-17T16:21:04;12.20;;;11.20;;
2211;SDS011;48849;48.758;9.158;2023-08-17T16:23:31;19.20;;;17.40;;
2211;SDS011;48849;48.758;9.158;2023-08-17T16:25:58;26.33;;;23.90;;
2211;SDS011;48849;48.758;9.158;2023-08-17T16:28:26;18.50;;;16.77;;
2211;SDS011;48849;48.758;9.158;2023-08-17T16:30:53;21.90;;;20.00;;